createdAt,value
2022-12-09T00:02:13.238Z,28.33
2022-12-09T00:04:41.467Z,25.87
2022-12-09T00:07:09.365Z,28.67
2022-12-09T00:09:37.425Z,28.80
2022-12-09T00:12:05.638Z,27.70
2022-12-09T00:14:33.696Z,27.37
2022-12-09T00:17:03.224Z,24.23
2022-12-09T00:19:31.502Z,28.97
2022-12-09T00:21:59.505Z,31.05
2022-12-09T00:24:27.297Z,24.03
2022-12-09T00:26:55.198Z,31.02
2022-12-09T00:29:22.973Z,29.65
2022-12-09T00:31:51.103Z,26.77
2022-12-09T00:34:20.579Z,28.90
2022-12-09T00:36:51.595Z,28.33
2022-12-09T00:39:19.633Z,28.70
2022-12-09T00:41:49.200Z,26.10
2022-12-09T00:44:17.208Z,26.93
2022-12-09T00:46:45.336Z,26.27
2022-12-09T00:49:13.359Z,29.13
2022-12-09T00:51:42.640Z,28.58
2022-12-09T00:54:10.785Z,30.33
2022-12-09T00:56:38.724Z,27.40
2022-12-09T00:59:06.635Z,26.23
2022-12-09T01:01:34.631Z,31.15
2022-12-09T01:04:03.240Z,29.27
2022-12-09T01:06:31.580Z,32.20
2022-12-09T01:09:00.891Z,28.77
2022-12-09T01:11:30.610Z,28.77
2022-12-09T01:14:01.521Z,33.13
2022-12-09T01:16:34.571Z,29.63
2022-12-09T01:19:04.310Z,29.95
2022-12-09T01:21:33.163Z,35.38
2022-12-09T01:24:03.377Z,34.15
2022-12-09T01:26:31.272Z,36.47
2022-12-09T01:28:59.455Z,31.75
2022-12-09T01:31:27.570Z,34.25
2022-12-09T01:33:56.261Z,30.13
2022-12-09T01:36:26.223Z,31.75
2022-12-09T01:38:54.789Z,28.67
2022-12-09T01:41:25.075Z,37.83
2022-12-09T01:44:15.770Z,29.80
2022-12-09T01:46:43.873Z,32.55
2022-12-09T01:49:17.674Z,29.63
2022-12-09T01:51:47.904Z,32.53
2022-12-09T01:54:16.115Z,32.58
2022-12-09T01:56:45.608Z,29.83
2022-12-09T01:59:16.519Z,28.95
2022-12-09T02:01:49.476Z,30.17
2022-12-09T02:04:17.920Z,32.70
2022-12-09T02:06:46.034Z,31.38
2022-12-09T02:09:14.188Z,33.63
2022-12-09T02:11:59.085Z,31.38
2022-12-09T02:14:33.089Z,30.67
2022-12-09T02:17:17.562Z,34.60
2022-12-09T02:20:01.463Z,33.03
2022-12-09T02:22:34.142Z,31.17
2022-12-09T02:25:13.332Z,31.13
2022-12-09T02:27:49.714Z,31.52
2022-12-09T02:30:20.790Z,34.05
2022-12-09T02:33:21.946Z,29.08
2022-12-09T02:35:56.019Z,35.33
2022-12-09T02:38:27.896Z,31.33
2022-12-09T02:41:02.276Z,32.13
2022-12-09T02:43:35.714Z,32.38
2022-12-09T02:46:06.170Z,28.83
2022-12-09T02:48:38.766Z,31.52
2022-12-09T02:51:11.380Z,37.53
2022-12-09T02:53:41.449Z,37.35
2022-12-09T02:56:10.378Z,36.50
2022-12-09T02:58:38.277Z,32.57
2022-12-09T03:01:07.360Z,32.80
2022-12-09T03:03:37.443Z,33.07
2022-12-09T03:06:10.986Z,32.80
2022-12-09T03:08:47.516Z,31.65
2022-12-09T03:11:18.092Z,34.87
2022-12-09T03:13:53.385Z,34.03
2022-12-09T03:16:28.884Z,28.97
2022-12-09T03:19:00.661Z,31.93
2022-12-09T03:21:32.899Z,32.23
2022-12-09T03:24:03.196Z,32.93
2022-12-09T03:26:33.369Z,31.60
2022-12-09T03:29:04.819Z,31.13
2022-12-09T03:31:35.809Z,32.13
2022-12-09T03:34:07.807Z,26.70
2022-12-09T03:36:40.943Z,31.40
2022-12-09T03:39:14.469Z,31.43
2022-12-09T03:41:46.410Z,33.00
2022-12-09T03:44:20.778Z,34.25
2022-12-09T03:46:49.195Z,36.53
2022-12-09T03:49:17.283Z,33.60
2022-12-09T03:51:55.570Z,35.60
2022-12-09T03:54:27.797Z,35.20
2022-12-09T03:56:57.786Z,33.20
2022-12-09T03:59:29.519Z,33.00
2022-12-09T04:01:58.228Z,30.87
2022-12-09T04:04:26.235Z,31.73
2022-12-09T04:06:56.137Z,30.37
2022-12-09T04:09:24.215Z,30.70
2022-12-09T04:11:52.415Z,34.30
2022-12-09T04:14:20.544Z,29.37
2022-12-09T04:16:48.423Z,38.57
2022-12-09T04:19:16.301Z,32.00
2022-12-09T04:21:44.221Z,29.47
2022-12-09T04:24:14.233Z,33.07
2022-12-09T04:26:44.951Z,26.63
2022-12-09T04:29:13.314Z,29.53
2022-12-09T04:31:41.499Z,32.93
2022-12-09T04:34:10.173Z,34.07
2022-12-09T04:36:39.566Z,38.07
2022-12-09T04:39:08.297Z,34.03
2022-12-09T04:41:38.219Z,25.57
2022-12-09T04:44:06.694Z,31.10
2022-12-09T04:46:35.042Z,28.80
2022-12-09T04:49:04.679Z,30.83
2022-12-09T04:51:39.095Z,33.13
2022-12-09T04:54:08.996Z,25.73
2022-12-09T04:56:38.267Z,23.20
2022-12-09T04:59:06.834Z,29.53
2022-12-09T05:01:35.515Z,25.70
2022-12-09T05:04:04.361Z,30.40
2022-12-09T05:06:32.834Z,31.97
2022-12-09T05:09:01.211Z,28.33
2022-12-09T05:11:29.712Z,28.93
2022-12-09T05:13:59.163Z,27.33
2022-12-09T05:16:27.316Z,25.90
2022-12-09T05:18:55.547Z,26.17
2022-12-09T05:21:23.829Z,27.17
2022-12-09T05:23:51.821Z,30.33
2022-12-09T05:26:50.145Z,28.57
2022-12-09T05:29:22.549Z,27.23
2022-12-09T05:31:51.787Z,26.67
2022-12-09T05:34:19.984Z,26.33
2022-12-09T05:36:48.617Z,22.83
2022-12-09T05:39:16.517Z,23.10
2022-12-09T05:41:46.639Z,25.13
2022-12-09T05:44:14.657Z,23.80
2022-12-09T05:46:44.100Z,26.05
2022-12-09T05:49:12.083Z,25.02
2022-12-09T05:51:40.275Z,24.92
2022-12-09T05:54:08.390Z,28.40
2022-12-09T05:56:37.082Z,28.13
2022-12-09T05:59:06.145Z,27.48
2022-12-09T06:01:34.179Z,24.90
2022-12-09T06:04:03.959Z,26.87
2022-12-09T06:06:32.358Z,25.88
2022-12-09T06:09:03.213Z,23.63
2022-12-09T06:11:32.618Z,23.20
2022-12-09T06:14:00.914Z,27.77
2022-12-09T06:16:29.037Z,23.40
2022-12-09T06:18:57.714Z,24.13
2022-12-09T06:21:27.364Z,25.30
2022-12-09T06:23:56.223Z,22.30
2022-12-09T06:26:26.948Z,28.63
2022-12-09T06:28:56.882Z,25.30
2022-12-09T06:31:25.892Z,24.70
2022-12-09T06:33:56.496Z,24.70
2022-12-09T06:36:27.993Z,22.90
2022-12-09T06:38:57.018Z,29.03
2022-12-09T06:41:26.952Z,26.50
2022-12-09T06:43:55.026Z,26.77
2022-12-09T06:46:24.832Z,23.15
2022-12-09T06:48:54.090Z,22.47
2022-12-09T06:51:23.652Z,28.30
2022-12-09T06:53:54.209Z,23.37
2022-12-09T06:56:22.444Z,27.07
2022-12-09T06:58:51.324Z,24.70
2022-12-09T07:01:22.773Z,24.73
2022-12-09T07:04:00.251Z,26.83
2022-12-09T07:06:31.110Z,25.67
2022-12-09T07:09:02.094Z,24.00
2022-12-09T07:11:31.061Z,21.87
2022-12-09T07:13:59.666Z,23.27
2022-12-09T07:16:30.151Z,27.17
2022-12-09T07:18:58.531Z,26.90
2022-12-09T07:21:26.942Z,27.87
2022-12-09T07:23:55.408Z,26.03
2022-12-09T07:26:25.661Z,28.23
2022-12-09T07:28:53.779Z,24.73
2022-12-09T07:31:25.007Z,25.33
2022-12-09T07:33:55.215Z,28.70
2022-12-09T07:36:25.145Z,21.33
2022-12-09T07:38:56.408Z,28.97
2022-12-09T07:41:26.560Z,21.88
2022-12-09T07:43:54.557Z,27.53
2022-12-09T07:46:24.354Z,27.17
2022-12-09T07:48:52.824Z,21.70
2022-12-09T07:51:21.655Z,25.17
2022-12-09T07:53:49.694Z,27.60
2022-12-09T07:56:19.413Z,26.67
2022-12-09T07:58:51.258Z,23.83
2022-12-09T08:01:21.079Z,29.63
2022-12-09T08:03:50.596Z,28.33
2022-12-09T08:06:22.652Z,24.57
2022-12-09T08:08:51.282Z,35.93
2022-12-09T08:11:21.597Z,30.30
2022-12-09T08:13:55.110Z,35.63
2022-12-09T08:16:24.284Z,26.93
2022-12-09T08:18:55.940Z,30.70
2022-12-09T08:21:26.417Z,32.90
2022-12-09T08:23:56.220Z,30.73
2022-12-09T08:26:27.147Z,33.23
2022-12-09T08:28:57.267Z,32.47
2022-12-09T08:31:27.528Z,28.93
2022-12-09T08:33:56.152Z,34.77
2022-12-09T08:36:26.452Z,44.33
2022-12-09T08:38:56.139Z,35.55
2022-12-09T08:41:35.360Z,36.45
2022-12-09T08:44:07.186Z,63.77
2022-12-09T08:46:37.372Z,42.45
2022-12-09T08:49:09.341Z,37.92
2022-12-09T08:51:38.282Z,38.83
2022-12-09T08:54:07.775Z,38.33
2022-12-09T08:56:36.774Z,51.38
2022-12-09T08:59:07.159Z,43.33
2022-12-09T09:01:36.429Z,46.05
2022-12-09T09:04:07.598Z,38.83
2022-12-09T09:06:37.267Z,41.07
2022-12-09T09:09:07.908Z,42.07
2022-12-09T09:11:42.449Z,48.63
2022-12-09T09:14:14.951Z,47.47
2022-12-09T09:16:45.796Z,40.47
2022-12-09T09:19:18.706Z,40.60
2022-12-09T09:21:47.213Z,41.33
2022-12-09T09:24:18.183Z,34.40
2022-12-09T09:26:47.654Z,28.90
2022-12-09T09:29:19.053Z,34.23
2022-12-09T09:31:48.796Z,34.57
2022-12-09T09:34:19.116Z,32.40
2022-12-09T09:36:50.497Z,34.97
2022-12-09T09:39:18.650Z,33.90
2022-12-09T09:41:52.927Z,28.92
2022-12-09T09:44:29.000Z,36.03
2022-12-09T09:46:58.549Z,32.93
2022-12-09T09:49:33.875Z,38.37
2022-12-09T09:52:07.300Z,37.13
2022-12-09T09:54:36.424Z,38.93
2022-12-09T09:57:14.256Z,29.37
2022-12-09T09:59:52.359Z,27.10
2022-12-09T10:02:37.554Z,34.17
2022-12-09T10:05:14.632Z,26.07
2022-12-09T10:07:45.172Z,26.17
2022-12-09T10:10:22.287Z,30.27
2022-12-09T10:13:08.339Z,31.53
2022-12-09T10:15:47.193Z,37.40
2022-12-09T10:18:21.820Z,28.17
2022-12-09T10:20:50.485Z,36.23
2022-12-09T10:23:20.790Z,53.73
2022-12-09T10:25:52.172Z,32.80
2022-12-09T10:28:24.092Z,34.47
2022-12-09T10:30:56.500Z,60.63
2022-12-09T10:33:30.629Z,49.20
2022-12-09T10:35:59.376Z,45.27
2022-12-09T10:38:33.034Z,42.17
2022-12-09T10:41:08.670Z,46.83
2022-12-09T10:43:38.833Z,45.80
2022-12-09T10:46:20.395Z,49.92
2022-12-09T10:48:55.950Z,47.42
2022-12-09T10:51:26.998Z,38.58
2022-12-09T10:54:00.427Z,45.00
2022-12-09T10:57:23.488Z,47.92
2022-12-09T11:00:02.055Z,33.03
2022-12-09T11:02:33.994Z,35.33
2022-12-09T11:05:25.440Z,38.13
2022-12-09T11:07:55.738Z,35.40
2022-12-09T11:10:26.808Z,33.97
2022-12-09T11:13:01.691Z,29.90
2022-12-09T11:15:36.734Z,28.88
2022-12-09T11:18:20.111Z,31.07
2022-12-09T11:20:57.048Z,35.97
2022-12-09T11:23:27.135Z,35.65
2022-12-09T11:25:58.623Z,34.47
2022-12-09T11:28:30.149Z,69.83
2022-12-09T11:33:57.112Z,52.57
2022-12-09T11:36:31.256Z,37.42
2022-12-09T11:39:16.727Z,42.87
2022-12-09T11:42:11.449Z,40.70
2022-12-09T11:44:45.240Z,42.33
2022-12-09T11:47:23.006Z,27.65
2022-12-09T11:49:55.992Z,32.72
2022-12-09T11:52:30.364Z,25.10
2022-12-09T11:55:11.472Z,20.92
2022-12-09T11:57:44.968Z,25.65
2022-12-09T12:00:21.129Z,37.38
2022-12-09T12:02:56.667Z,24.33
2022-12-09T12:05:31.014Z,22.13
2022-12-09T12:08:09.688Z,24.52
2022-12-09T12:10:43.194Z,26.77
2022-12-09T12:13:17.979Z,23.30
2022-12-09T12:15:53.291Z,35.33
2022-12-09T12:18:23.359Z,24.73
2022-12-09T12:21:12.393Z,20.75
2022-12-09T12:23:57.538Z,24.30
2022-12-09T12:26:30.280Z,19.03
2022-12-09T12:29:12.345Z,34.38
2022-12-09T12:32:01.511Z,20.20
2022-12-09T12:34:39.650Z,15.50
2022-12-09T12:37:26.039Z,18.05
2022-12-09T12:40:10.115Z,29.65
2022-12-09T12:43:07.871Z,22.27
2022-12-09T12:46:03.619Z,21.88
2022-12-09T12:48:44.052Z,20.88
2022-12-09T12:51:25.631Z,34.97
2022-12-09T12:54:09.651Z,27.25
2022-12-09T12:56:47.243Z,19.25
2022-12-09T12:59:24.201Z,16.90
2022-12-09T13:01:55.228Z,37.22
2022-12-09T13:04:27.315Z,34.95
2022-12-09T13:07:01.566Z,29.27
2022-12-09T13:09:37.922Z,19.27
2022-12-09T13:12:12.968Z,55.78
2022-12-09T13:14:52.624Z,32.15
2022-12-09T13:17:25.680Z,24.45
2022-12-09T13:19:57.240Z,27.08
2022-12-09T13:22:31.262Z,19.08
2022-12-09T13:25:19.443Z,24.95
2022-12-09T13:27:54.421Z,23.42
2022-12-09T13:30:27.355Z,23.80
2022-12-09T13:33:19.153Z,26.92
2022-12-09T13:35:55.575Z,27.63
2022-12-09T13:38:33.665Z,23.60
2022-12-09T13:41:59.142Z,32.47
2022-12-09T13:44:32.736Z,17.83
2022-12-09T13:47:24.306Z,18.70
2022-12-09T13:50:01.708Z,19.88
2022-12-09T13:52:50.014Z,18.70
2022-12-09T13:55:39.581Z,21.60
2022-12-09T13:58:31.481Z,19.15
2022-12-09T14:01:05.339Z,18.65
2022-12-09T14:03:36.475Z,18.15
2022-12-09T14:06:17.358Z,21.25
2022-12-09T14:08:49.970Z,21.10
2022-12-09T14:11:48.158Z,18.23
2022-12-09T14:15:07.350Z,20.17
2022-12-09T14:18:03.815Z,21.83
2022-12-09T14:20:37.970Z,24.50
2022-12-09T14:23:26.920Z,22.70
2022-12-09T14:26:01.187Z,22.20
2022-12-09T14:28:56.848Z,16.38
2022-12-09T14:32:03.828Z,19.85
2022-12-09T14:34:40.266Z,23.30
2022-12-09T14:37:37.362Z,24.77
2022-12-09T14:40:34.757Z,40.60
2022-12-09T14:43:14.930Z,22.08
2022-12-09T14:45:50.394Z,23.63
2022-12-09T14:48:24.181Z,31.60
2022-12-09T14:51:10.062Z,23.45
2022-12-09T14:53:39.561Z,24.35
2022-12-09T14:56:08.288Z,23.92
2022-12-09T14:58:36.330Z,24.52
2022-12-09T15:01:07.002Z,24.65
2022-12-09T15:03:44.791Z,26.17
2022-12-09T15:06:18.584Z,27.52
2022-12-09T15:08:47.458Z,30.20
2022-12-09T15:11:19.432Z,26.20
2022-12-09T15:13:50.499Z,27.52
2022-12-09T15:16:21.347Z,30.80
2022-12-09T15:18:54.187Z,24.85
2022-12-09T15:21:29.827Z,25.77
2022-12-09T15:24:01.179Z,28.67
2022-12-09T15:26:30.916Z,29.35
2022-12-09T15:29:01.135Z,40.42
2022-12-09T15:31:31.032Z,31.60
2022-12-09T15:34:08.803Z,33.38
2022-12-09T15:36:39.506Z,28.33
2022-12-09T15:39:11.176Z,28.08
2022-12-09T15:42:01.066Z,30.00
2022-12-09T15:44:32.729Z,37.72
2022-12-09T15:47:10.307Z,28.80
2022-12-09T15:49:45.559Z,29.40
2022-12-09T15:52:15.760Z,31.80
2022-12-09T15:54:46.157Z,29.00
2022-12-09T15:57:18.085Z,27.38
2022-12-09T15:59:55.825Z,24.88
2022-12-09T16:02:27.575Z,34.40
2022-12-09T16:05:00.631Z,22.30
2022-12-09T16:07:32.820Z,29.27
2022-12-09T16:10:11.875Z,21.08
2022-12-09T16:12:43.415Z,22.90
2022-12-09T16:15:14.239Z,25.73
2022-12-09T16:17:54.257Z,25.70
2022-12-09T16:20:34.177Z,23.50
2022-12-09T16:23:02.526Z,21.80
2022-12-09T16:25:38.013Z,18.17
2022-12-09T16:28:07.580Z,18.88
2022-12-09T16:30:49.694Z,26.48
2022-12-09T16:33:19.847Z,23.27
2022-12-09T16:35:59.165Z,27.38
2022-12-09T16:38:27.427Z,23.85
2022-12-09T16:41:13.508Z,25.67
2022-12-09T16:44:02.309Z,27.08
2022-12-09T16:46:39.591Z,30.63
2022-12-09T16:49:08.493Z,28.90
2022-12-09T16:51:38.917Z,23.25
2022-12-09T16:54:20.109Z,23.77
2022-12-09T16:56:49.928Z,30.63
2022-12-09T16:59:18.064Z,31.20
2022-12-09T17:01:46.566Z,28.52
2022-12-09T17:04:17.484Z,32.25
2022-12-09T17:06:47.535Z,28.23
2022-12-09T17:09:15.553Z,37.65
2022-12-09T17:11:48.555Z,28.20
2022-12-09T17:14:19.998Z,31.42
2022-12-09T17:16:48.250Z,29.13
2022-12-09T17:19:16.504Z,33.63
2022-12-09T17:21:44.662Z,27.20
2022-12-09T17:24:14.012Z,25.20
2022-12-09T17:26:42.543Z,16.85
2022-12-09T17:29:10.932Z,25.40
2022-12-09T17:31:38.985Z,22.70
2022-12-09T17:34:07.210Z,28.70
2022-12-09T17:36:35.162Z,26.73
2022-12-09T17:39:07.546Z,28.65
2022-12-09T17:41:37.117Z,31.10
2022-12-09T17:44:05.358Z,27.52
2022-12-09T17:46:33.395Z,34.03
2022-12-09T17:49:02.082Z,33.97
2022-12-09T17:51:35.601Z,32.33
2022-12-09T17:54:04.411Z,33.38
2022-12-09T17:56:32.553Z,33.20
2022-12-09T17:59:04.094Z,33.60
2022-12-09T18:01:34.255Z,25.98
2022-12-09T18:04:08.099Z,36.42
2022-12-09T18:06:38.172Z,22.27
2022-12-09T18:09:08.330Z,30.35
2022-12-09T18:11:36.604Z,30.00
2022-12-09T18:14:07.202Z,25.98
2022-12-09T18:16:35.634Z,33.03
2022-12-09T18:19:05.490Z,22.70
2022-12-09T18:21:34.608Z,26.83
2022-12-09T18:24:03.004Z,23.55
2022-12-09T18:26:36.670Z,25.08
2022-12-09T18:29:09.479Z,27.83
2022-12-09T18:31:37.557Z,27.75
2022-12-09T18:34:05.957Z,30.25
2022-12-09T18:36:33.890Z,23.13
2022-12-09T18:39:02.929Z,28.95
2022-12-09T18:41:32.725Z,24.13
2022-12-09T18:44:03.669Z,20.08
2022-12-09T18:46:35.602Z,19.13
2022-12-09T18:49:05.962Z,20.40
2022-12-09T18:51:34.018Z,24.33
2022-12-09T18:54:03.712Z,23.25
2022-12-09T18:56:32.621Z,23.10
2022-12-09T18:59:09.190Z,23.10
2022-12-09T19:01:43.550Z,24.25
2022-12-09T19:04:17.197Z,20.50
2022-12-09T19:06:47.516Z,21.38
2022-12-09T19:09:17.801Z,22.77
2022-12-09T19:11:47.228Z,20.65
2022-12-09T19:14:16.287Z,19.70
2022-12-09T19:16:46.953Z,24.10
2022-12-09T19:19:17.340Z,24.25
2022-12-09T19:21:45.892Z,22.25
2022-12-09T19:24:22.932Z,22.17
2022-12-09T19:26:53.186Z,17.80
2022-12-09T19:29:24.597Z,21.15
2022-12-09T19:31:57.145Z,18.67
2022-12-09T19:34:27.040Z,20.52
2022-12-09T19:36:57.371Z,27.33
2022-12-09T19:39:30.046Z,22.85
2022-12-09T19:41:58.635Z,22.10
2022-12-09T19:47:18.157Z,21.77
2022-12-09T19:49:46.214Z,24.08
2022-12-09T19:52:14.245Z,22.65
2022-12-09T19:54:42.891Z,25.38
2022-12-09T19:57:10.827Z,21.85
2022-12-09T19:59:38.807Z,22.02
2022-12-09T20:02:12.033Z,18.40
2022-12-09T20:04:50.290Z,23.10
2022-12-09T20:07:19.093Z,24.13
2022-12-09T20:09:47.495Z,21.55
2022-12-09T20:12:15.682Z,25.50
2022-12-09T20:14:44.091Z,27.05
2022-12-09T20:17:17.308Z,26.73
2022-12-09T20:19:48.353Z,26.48
2022-12-09T20:22:16.385Z,22.83
2022-12-09T20:24:44.529Z,29.05
2022-12-09T20:27:12.674Z,26.38
2022-12-09T20:29:40.469Z,25.38
2022-12-09T20:32:09.482Z,22.20
2022-12-09T20:34:40.318Z,23.33
2022-12-09T20:37:10.403Z,26.52
2022-12-09T20:39:38.780Z,28.85
2022-12-09T20:42:07.021Z,25.00
2022-12-09T20:44:35.257Z,24.58
2022-12-09T20:47:03.533Z,23.77
2022-12-09T20:49:31.667Z,24.15
2022-12-09T20:52:00.298Z,24.13
2022-12-09T20:54:29.771Z,24.35
2022-12-09T20:56:58.272Z,27.23
2022-12-09T20:59:26.325Z,22.77
2022-12-09T21:01:56.020Z,22.83
2022-12-09T21:04:24.324Z,24.58
2022-12-09T21:06:52.649Z,28.70
2022-12-09T21:09:24.699Z,24.88
2022-12-09T21:11:54.912Z,26.83
2022-12-09T21:14:25.681Z,24.70
2022-12-09T21:16:58.490Z,21.75
2022-12-09T21:19:30.012Z,29.42
2022-12-09T21:21:58.047Z,29.13
2022-12-09T21:24:26.301Z,27.95
2022-12-09T21:26:57.325Z,27.35
2022-12-09T21:29:33.494Z,24.33
2022-12-09T21:32:02.646Z,22.85
2022-12-09T21:34:30.817Z,26.70
2022-12-09T21:36:58.833Z,23.13
2022-12-09T21:39:27.613Z,25.55
2022-12-09T21:42:02.914Z,22.08
2022-12-09T21:44:30.792Z,25.35
2022-12-09T21:46:58.728Z,29.55
2022-12-09T21:49:29.636Z,23.23
2022-12-09T21:51:57.655Z,24.75
2022-12-09T21:54:25.961Z,24.95
2022-12-09T21:56:54.349Z,29.40
2022-12-09T21:59:23.890Z,22.63
2022-12-09T22:01:52.265Z,25.85
2022-12-09T22:04:20.461Z,28.38
2022-12-09T22:06:49.838Z,24.85
2022-12-09T22:09:20.777Z,29.33
2022-12-09T22:11:48.646Z,28.05
2022-12-09T22:14:16.919Z,25.88
2022-12-09T22:16:47.220Z,26.05
2022-12-09T22:19:20.829Z,23.17
2022-12-09T22:21:52.004Z,20.85
2022-12-09T22:24:20.183Z,24.02
2022-12-09T22:26:48.286Z,25.42
2022-12-09T22:29:17.735Z,30.27
2022-12-09T22:31:48.226Z,25.52
2022-12-09T22:34:17.578Z,24.13
2022-12-09T22:36:49.150Z,23.70
2022-12-09T22:39:21.511Z,24.30
2022-12-09T22:41:49.666Z,20.17
2022-12-09T22:44:20.760Z,19.40
2022-12-09T22:46:50.562Z,17.52
2022-12-09T22:49:18.649Z,18.55
2022-12-09T22:51:47.757Z,22.20
2022-12-09T22:54:16.486Z,18.63
2022-12-09T22:56:45.108Z,20.17
2022-12-09T22:59:14.596Z,18.40
2022-12-09T23:01:47.546Z,18.42
2022-12-09T23:04:19.169Z,19.10
2022-12-09T23:06:47.391Z,21.45
2022-12-09T23:09:17.293Z,22.15
2022-12-09T23:11:45.872Z,18.52
2022-12-09T23:14:13.770Z,20.70
2022-12-09T23:16:41.606Z,19.33
2022-12-09T23:19:11.550Z,18.63
2022-12-09T23:21:43.020Z,23.08
2022-12-09T23:24:15.721Z,20.58
2022-12-09T23:26:46.374Z,19.40
2022-12-09T23:29:16.373Z,22.40
2022-12-09T23:31:44.952Z,22.33
2022-12-09T23:34:29.956Z,17.92
2022-12-09T23:36:59.113Z,22.25
2022-12-09T23:39:27.956Z,18.15
2022-12-09T23:41:55.927Z,20.20
2022-12-09T23:44:23.665Z,17.63
2022-12-09T23:46:51.559Z,21.50
2022-12-09T23:49:19.407Z,15.73
2022-12-09T23:51:47.947Z,23.67
2022-12-09T23:54:19.205Z,20.58
2022-12-09T23:56:50.617Z,21.42
2022-12-09T23:59:20.935Z,18.40
